N2308E KPVU-KOGD
Flight info
| Callsign | N2308E |
|---|---|
| Flight time | 0h 32m |
| Altitude | 16000 |
| Route | PROVO4 FFU V21 OGD |
| Aircraft | C525/L-SDFGRWY/SB1 |
Departure
| Time | 2026-04-24 05:35 |
|---|---|
| Airport | Provo Municipal Airport (KPVU) |
Arrival
| Time | 2026-04-24 06:07 |
|---|---|
| Airport | Ogden Hinckley Airport (KOGD) |
| Time | Latitude | Longitude | Altitude | Speed | Heading |
|---|---|---|---|---|---|
| 2026-04-24 05:21 | 40.21723 | -111.71810 | 4497 ft | 0 kts | 324° |
| 2026-04-24 05:29 | 40.21724 | -111.71811 | 4497 ft | 0 kts | 324° |
| 2026-04-24 05:29 | 40.21733 | -111.71823 | 4497 ft | 2 kts | 284° |
| 2026-04-24 05:29 | 40.21732 | -111.71832 | 4497 ft | 0 kts | 248° |
| 2026-04-24 05:30 | 40.21725 | -111.71847 | 4497 ft | 3 kts | 237° |
| 2026-04-24 05:30 | 40.21730 | -111.71883 | 4497 ft | 6 kts | 321° |
| 2026-04-24 05:31 | 40.21772 | -111.71920 | 4497 ft | 8 kts | 326° |
| 2026-04-24 05:31 | 40.21831 | -111.71972 | 4497 ft | 11 kts | 325° |
| 2026-04-24 05:31 | 40.21905 | -111.72038 | 4496 ft | 14 kts | 325° |
| 2026-04-24 05:31 | 40.21999 | -111.72103 | 4496 ft | 16 kts | 332° |
| 2026-04-24 05:32 | 40.22104 | -111.72176 | 4496 ft | 18 kts | 330° |
| 2026-04-24 05:32 | 40.22214 | -111.72269 | 4496 ft | 19 kts | 326° |
| 2026-04-24 05:32 | 40.22332 | -111.72373 | 4496 ft | 21 kts | 327° |
| 2026-04-24 05:32 | 40.22456 | -111.72484 | 4496 ft | 22 kts | 326° |
| 2026-04-24 05:33 | 40.22592 | -111.72604 | 4495 ft | 24 kts | 326° |
| 2026-04-24 05:33 | 40.22740 | -111.72736 | 4493 ft | 26 kts | 326° |
| 2026-04-24 05:33 | 40.22892 | -111.72870 | 4493 ft | 25 kts | 326° |
| 2026-04-24 05:34 | 40.23098 | -111.73074 | 4493 ft | 13 kts | 263° |
| 2026-04-24 05:34 | 40.23050 | -111.73174 | 4493 ft | 12 kts | 235° |
| 2026-04-24 05:34 | 40.22987 | -111.73211 | 4493 ft | 10 kts | 153° |
| 2026-04-24 05:34 | 40.22843 | -111.73086 | 4493 ft | 51 kts | 146° |
| 2026-04-24 05:35 | 40.22392 | -111.72687 | 4493 ft | 103 kts | 146° |
| 2026-04-24 05:35 | 40.21709 | -111.72095 | 4594 ft | 129 kts | 146° |
| 2026-04-24 05:35 | 40.20897 | -111.71403 | 4833 ft | 149 kts | 147° |
| 2026-04-24 05:35 | 40.19970 | -111.70652 | 5217 ft | 162 kts | 149° |
| 2026-04-24 05:36 | 40.18928 | -111.70155 | 5788 ft | 162 kts | 177° |
| 2026-04-24 05:36 | 40.17874 | -111.70604 | 6270 ft | 168 kts | 220° |
| 2026-04-24 05:36 | 40.17420 | -111.71974 | 6695 ft | 177 kts | 278° |
| 2026-04-24 05:36 | 40.17892 | -111.73350 | 7455 ft | 165 kts | 307° |
| 2026-04-24 05:37 | 40.18670 | -111.74429 | 7918 ft | 165 kts | 315° |
| 2026-04-24 05:37 | 40.19498 | -111.75446 | 8406 ft | 163 kts | 310° |
| 2026-04-24 05:37 | 40.19951 | -111.76750 | 8832 ft | 164 kts | 272° |
| 2026-04-24 05:37 | 40.19614 | -111.78258 | 9023 ft | 184 kts | 247° |
| 2026-04-24 05:38 | 40.18953 | -111.79830 | 9021 ft | 212 kts | 243° |
| 2026-04-24 05:38 | 40.18193 | -111.81605 | 9007 ft | 237 kts | 244° |
| 2026-04-24 05:38 | 40.17401 | -111.83612 | 8998 ft | 258 kts | 246° |
| 2026-04-24 05:38 | 40.16592 | -111.85796 | 8988 ft | 276 kts | 246° |
| 2026-04-24 05:39 | 40.15748 | -111.88138 | 8982 ft | 291 kts | 247° |
| 2026-04-24 05:39 | 40.14889 | -111.90537 | 8963 ft | 285 kts | 247° |
| 2026-04-24 05:39 | 40.14073 | -111.92807 | 8930 ft | 267 kts | 247° |
| 2026-04-24 05:39 | 40.13519 | -111.94995 | 8941 ft | 247 kts | 268° |
| 2026-04-24 05:40 | 40.13936 | -111.97036 | 8975 ft | 229 kts | 302° |
| 2026-04-24 05:40 | 40.15136 | -111.98305 | 8983 ft | 223 kts | 338° |
| 2026-04-24 05:40 | 40.16665 | -111.98363 | 8997 ft | 224 kts | 13° |
| 2026-04-24 05:40 | 40.18088 | -111.97588 | 9002 ft | 223 kts | 22° |
| 2026-04-24 05:41 | 40.19463 | -111.96641 | 9005 ft | 223 kts | 25° |
| 2026-04-24 05:41 | 40.20813 | -111.95662 | 8994 ft | 223 kts | 26° |
| 2026-04-24 05:41 | 40.22158 | -111.94629 | 8994 ft | 222 kts | 21° |
| 2026-04-24 05:41 | 40.23601 | -111.94039 | 9007 ft | 218 kts | 7° |
| 2026-04-24 05:42 | 40.25127 | -111.93867 | 9004 ft | 219 kts | 357° |
| 2026-04-24 05:42 | 40.26648 | -111.93926 | 9000 ft | 221 kts | 353° |
| 2026-04-24 05:42 | 40.28192 | -111.94071 | 9001 ft | 223 kts | 352° |
| 2026-04-24 05:42 | 40.29760 | -111.94204 | 9004 ft | 227 kts | 354° |
| 2026-04-24 05:43 | 40.31335 | -111.94380 | 9000 ft | 230 kts | 355° |
| 2026-04-24 05:43 | 40.32867 | -111.93696 | 9007 ft | 240 kts | 33° |
| 2026-04-24 05:43 | 40.33863 | -111.91921 | 9004 ft | 250 kts | 68° |
| 2026-04-24 05:43 | 40.33956 | -111.89643 | 9004 ft | 256 kts | 102° |
| 2026-04-24 05:44 | 40.33093 | -111.87647 | 9017 ft | 256 kts | 136° |
| 2026-04-24 05:44 | 40.31559 | -111.86540 | 9031 ft | 251 kts | 166° |
| 2026-04-24 05:44 | 40.29874 | -111.86053 | 9013 ft | 251 kts | 173° |
| 2026-04-24 05:44 | 40.28139 | -111.85735 | 8987 ft | 249 kts | 175° |
| 2026-04-24 05:45 | 40.26416 | -111.85467 | 8969 ft | 247 kts | 176° |
| 2026-04-24 05:45 | 40.24733 | -111.85217 | 8964 ft | 244 kts | 176° |
| 2026-04-24 05:45 | 40.23045 | -111.84972 | 8966 ft | 242 kts | 176° |
| 2026-04-24 05:45 | 40.21372 | -111.84728 | 8963 ft | 240 kts | 176° |
| 2026-04-24 05:46 | 40.19722 | -111.84526 | 8954 ft | 237 kts | 183° |
| 2026-04-24 05:46 | 40.18232 | -111.85220 | 8963 ft | 226 kts | 221° |
| 2026-04-24 05:46 | 40.17399 | -111.86866 | 8957 ft | 217 kts | 258° |
| 2026-04-24 05:46 | 40.17525 | -111.88777 | 8956 ft | 212 kts | 295° |
| 2026-04-24 05:47 | 40.18358 | -111.90357 | 8970 ft | 211 kts | 307° |
| 2026-04-24 05:47 | 40.19292 | -111.91825 | 8964 ft | 210 kts | 309° |
| 2026-04-24 05:47 | 40.20427 | -111.93002 | 8908 ft | 214 kts | 338° |
| 2026-04-24 05:47 | 40.21883 | -111.93353 | 8974 ft | 212 kts | 351° |
| 2026-04-24 05:48 | 40.23344 | -111.93465 | 8995 ft | 211 kts | 355° |
| 2026-04-24 05:48 | 40.24816 | -111.93521 | 8997 ft | 212 kts | 355° |
| 2026-04-24 05:48 | 40.26281 | -111.93662 | 8997 ft | 211 kts | 349° |
| 2026-04-24 05:48 | 40.27734 | -111.93921 | 8988 ft | 211 kts | 349° |
| 2026-04-24 05:49 | 40.29206 | -111.94125 | 9137 ft | 206 kts | 352° |
| 2026-04-24 05:49 | 40.30649 | -111.94270 | 9307 ft | 211 kts | 352° |
| 2026-04-24 05:49 | 40.32088 | -111.94384 | 9752 ft | 208 kts | 352° |
| 2026-04-24 05:49 | 40.33524 | -111.94486 | 10135 ft | 208 kts | 353° |
| 2026-04-24 05:50 | 40.34984 | -111.94590 | 10442 ft | 213 kts | 353° |
| 2026-04-24 05:50 | 40.36461 | -111.94694 | 10922 ft | 212 kts | 352° |
| 2026-04-24 05:50 | 40.37952 | -111.94800 | 11322 ft | 215 kts | 352° |
| 2026-04-24 05:50 | 40.39423 | -111.94905 | 11754 ft | 215 kts | 352° |
| 2026-04-24 05:51 | 40.40921 | -111.95013 | 12126 ft | 218 kts | 352° |
| 2026-04-24 05:51 | 40.42428 | -111.95120 | 12566 ft | 217 kts | 351° |
| 2026-04-24 05:51 | 40.43940 | -111.95229 | 12954 ft | 218 kts | 351° |
| 2026-04-24 05:51 | 40.45473 | -111.95339 | 13323 ft | 221 kts | 351° |
| 2026-04-24 05:52 | 40.46996 | -111.95448 | 13753 ft | 220 kts | 351° |
| 2026-04-24 05:52 | 40.48514 | -111.95557 | 14097 ft | 222 kts | 350° |
| 2026-04-24 05:52 | 40.50059 | -111.95667 | 14498 ft | 222 kts | 350° |
| 2026-04-24 05:52 | 40.51610 | -111.95777 | 14889 ft | 222 kts | 350° |
| 2026-04-24 05:53 | 40.53146 | -111.95887 | 15242 ft | 223 kts | 350° |
| 2026-04-24 05:53 | 40.54709 | -111.96000 | 15598 ft | 224 kts | 350° |
| 2026-04-24 05:53 | 40.56245 | -111.96111 | 15945 ft | 225 kts | 349° |
| 2026-04-24 05:53 | 40.57853 | -111.96232 | 16026 ft | 237 kts | 349° |
| 2026-04-24 05:54 | 40.59556 | -111.96361 | 16038 ft | 251 kts | 350° |
| 2026-04-24 05:54 | 40.61339 | -111.96497 | 16040 ft | 263 kts | 350° |
| 2026-04-24 05:54 | 40.63208 | -111.96637 | 16036 ft | 275 kts | 351° |
| 2026-04-24 05:54 | 40.65148 | -111.96776 | 16034 ft | 285 kts | 351° |
| 2026-04-24 05:55 | 40.67166 | -111.96918 | 16029 ft | 293 kts | 351° |
| 2026-04-24 05:55 | 40.69208 | -111.97062 | 16027 ft | 300 kts | 351° |
| 2026-04-24 05:55 | 40.71330 | -111.97213 | 16029 ft | 305 kts | 351° |
| 2026-04-24 05:55 | 40.73461 | -111.97364 | 16027 ft | 310 kts | 351° |
| 2026-04-24 05:56 | 40.75626 | -111.97519 | 16022 ft | 314 kts | 351° |
| 2026-04-24 05:56 | 40.77806 | -111.97675 | 15995 ft | 318 kts | 351° |
| 2026-04-24 05:56 | 40.80028 | -111.97833 | 15534 ft | 318 kts | 351° |
| 2026-04-24 05:56 | 40.82235 | -111.97988 | 15068 ft | 312 kts | 351° |
| 2026-04-24 05:57 | 40.84366 | -111.98169 | 14605 ft | 304 kts | 348° |
| 2026-04-24 05:57 | 40.86303 | -111.99058 | 14137 ft | 288 kts | 324° |
| 2026-04-24 05:57 | 40.87684 | -112.00851 | 13697 ft | 277 kts | 304° |
| 2026-04-24 05:57 | 40.88757 | -112.02936 | 13236 ft | 273 kts | 302° |
| 2026-04-24 05:58 | 40.89835 | -112.04959 | 12785 ft | 271 kts | 304° |
| 2026-04-24 05:58 | 40.91005 | -112.06930 | 12324 ft | 270 kts | 307° |
| 2026-04-24 05:58 | 40.92212 | -112.08812 | 11876 ft | 270 kts | 309° |
| 2026-04-24 05:58 | 40.93434 | -112.10644 | 11503 ft | 267 kts | 309° |
| 2026-04-24 05:59 | 40.94669 | -112.12472 | 11127 ft | 266 kts | 309° |
| 2026-04-24 05:59 | 40.95900 | -112.14291 | 10750 ft | 264 kts | 310° |
| 2026-04-24 05:59 | 40.97107 | -112.16079 | 10384 ft | 263 kts | 310° |
| 2026-04-24 05:59 | 40.98332 | -112.17896 | 10007 ft | 263 kts | 310° |
| 2026-04-24 06:00 | 40.99544 | -112.19697 | 9637 ft | 262 kts | 310° |
| 2026-04-24 06:00 | 41.00756 | -112.21458 | 9265 ft | 262 kts | 314° |
| 2026-04-24 06:00 | 41.02385 | -112.22585 | 8891 ft | 266 kts | 344° |
| 2026-04-24 06:00 | 41.04223 | -112.22585 | 8535 ft | 270 kts | 7° |
| 2026-04-24 06:01 | 41.06071 | -112.22515 | 8303 ft | 261 kts | 356° |
| 2026-04-24 06:01 | 41.07765 | -112.21773 | 8082 ft | 267 kts | 36° |
| 2026-04-24 06:01 | 41.08799 | -112.19684 | 7472 ft | 281 kts | 64° |
| 2026-04-24 06:01 | 41.09620 | -112.17387 | 7415 ft | 266 kts | 63° |
| 2026-04-24 06:02 | 41.10434 | -112.15215 | 7095 ft | 263 kts | 63° |
| 2026-04-24 06:02 | 41.11268 | -112.13094 | 6736 ft | 261 kts | 61° |
| 2026-04-24 06:02 | 41.12183 | -112.11021 | 6339 ft | 260 kts | 59° |
| 2026-04-24 06:02 | 41.13162 | -112.09029 | 6013 ft | 257 kts | 52° |
| 2026-04-24 06:03 | 41.14382 | -112.07356 | 5752 ft | 250 kts | 44° |
| 2026-04-24 06:03 | 41.15684 | -112.05813 | 5423 ft | 247 kts | 41° |
| 2026-04-24 06:03 | 41.16987 | -112.04437 | 5262 ft | 234 kts | 34° |
| 2026-04-24 06:03 | 41.18406 | -112.03574 | 5273 ft | 216 kts | 18° |
| 2026-04-24 06:04 | 41.19793 | -112.02987 | 5248 ft | 202 kts | 18° |
| 2026-04-24 06:04 | 41.21088 | -112.02416 | 5237 ft | 188 kts | 21° |
| 2026-04-24 06:04 | 41.22218 | -112.01710 | 5257 ft | 168 kts | 35° |
| 2026-04-24 06:04 | 41.23059 | -112.00771 | 5233 ft | 149 kts | 47° |
| 2026-04-24 06:05 | 41.23673 | -111.99818 | 5205 ft | 122 kts | 54° |
| 2026-04-24 06:05 | 41.24127 | -111.98960 | 5046 ft | 111 kts | 68° |
| 2026-04-24 06:05 | 41.24173 | -111.98023 | 5025 ft | 102 kts | 120° |
| 2026-04-24 06:05 | 41.23606 | -111.97461 | 5046 ft | 106 kts | 173° |
| 2026-04-24 06:06 | 41.22845 | -111.97385 | 5049 ft | 115 kts | 179° |
| 2026-04-24 06:06 | 41.22084 | -111.97704 | 5017 ft | 120 kts | 220° |
| 2026-04-24 06:06 | 41.21516 | -111.98544 | 4844 ft | 124 kts | 224° |
| 2026-04-24 06:06 | 41.20893 | -111.99356 | 4655 ft | 124 kts | 219° |
| 2026-04-24 06:07 | 41.20269 | -112.00150 | 4478 ft | 122 kts | 221° |
| 2026-04-24 06:07 | 41.19730 | -112.00861 | 4431 ft | 97 kts | 225° |
| 2026-04-24 06:07 | 41.19355 | -112.01356 | 4444 ft | 51 kts | 224° |
| 2026-04-24 06:07 | 41.19200 | -112.01558 | 4448 ft | 20 kts | 225° |
| 2026-04-24 06:08 | 41.19107 | -112.01679 | 4451 ft | 17 kts | 225° |
| 2026-04-24 06:08 | 41.19015 | -112.01801 | 4453 ft | 19 kts | 225° |
| 2026-04-24 06:08 | 41.18912 | -112.01936 | 4458 ft | 22 kts | 225° |
| 2026-04-24 06:08 | 41.18795 | -112.02049 | 4462 ft | 18 kts | 166° |
| 2026-04-24 06:09 | 41.18739 | -112.01910 | 4459 ft | 21 kts | 69° |
| 2026-04-24 06:09 | 41.18846 | -112.01755 | 4456 ft | 24 kts | 45° |
| 2026-04-24 06:09 | 41.18981 | -112.01578 | 4450 ft | 29 kts | 45° |
| 2026-04-24 06:09 | 41.19122 | -112.01393 | 4446 ft | 28 kts | 45° |
| 2026-04-24 06:10 | 41.19260 | -112.01210 | 4442 ft | 27 kts | 45° |
| 2026-04-24 06:10 | 41.19394 | -112.01035 | 4438 ft | 26 kts | 44° |
| 2026-04-24 06:10 | 41.19517 | -112.00872 | 4435 ft | 18 kts | 44° |
| 2026-04-24 06:11 | 41.19526 | -112.00784 | 4433 ft | 0 kts | 229° |
| 2026-04-24 06:11 | 41.19525 | -112.00786 | 4433 ft | 0 kts | 224° |